Decoded Metar for PAWM ( in ) (IATA:) | Meteo·Mobile Aviation Weather
aviador You're here:

PAWM Decoded Metar

in
Report Time2019-04-23 15:56:00
UTC Time2019-04-23 16:16:55
Flight Rules mvfr MVFR
Wind330° at 04 kt
W.Decomp.*RWY 33: 4.0 kt HW 0 kt LCW
Visibility9999 m
Phenomena:Light Snow
Clouds:Broken 028 Hf
Overcast 036 Hf
Expected CloudBase > 800 ft AGL from Temp-Dew spread
Ceiling2,800 ft
Temp-2°C
Dew Point-4°C (86% RH)
AAT-5.9°C
QNH1003 hPa
Raw Report
PAWM 231556Z AUTO 33004KT 9SM -SN BKN028 OVC036 M02/M04 A2962 RMK
AO2 SLP036 P0000 T10171044 FZRANO=

Extra information for PAWM:More info

Social comments